createdAt,value
2016-02-22T00:00:24.942Z,997.83
2016-02-22T00:01:24.992Z,997.65
2016-02-22T00:02:25.041Z,997.83
2016-02-22T00:03:25.090Z,997.83
2016-02-22T00:04:25.156Z,997.9
2016-02-22T00:05:25.193Z,997.89
2016-02-22T00:06:25.242Z,997.87
2016-02-22T00:07:25.307Z,997.89
2016-02-22T00:08:25.341Z,997.84
2016-02-22T00:09:25.407Z,997.86
2016-02-22T00:10:25.456Z,997.95
2016-02-22T00:11:25.506Z,997.79
2016-02-22T00:12:25.570Z,997.91
2016-02-22T00:13:25.605Z,997.81
2016-02-22T00:14:25.655Z,997.75
2016-02-22T00:15:25.719Z,997.84
2016-02-22T00:16:25.758Z,997.91
2016-02-22T00:17:25.808Z,997.9
2016-02-22T00:18:25.874Z,997.91
2016-02-22T00:19:25.907Z,997.81
2016-02-22T00:20:25.957Z,997.92
2016-02-22T00:21:26.021Z,997.78
2016-02-22T00:22:26.071Z,997.89
2016-02-22T00:23:26.105Z,997.78
2016-02-22T00:24:26.171Z,997.89
2016-02-22T00:25:26.220Z,997.9
2016-02-22T00:26:26.270Z,997.85
2016-02-22T00:27:26.319Z,997.85
2016-02-22T00:28:26.384Z,997.81
2016-02-22T00:29:26.434Z,997.83
2016-02-22T00:30:26.468Z,997.79
2016-02-22T00:31:26.534Z,997.84
2016-02-22T00:32:26.582Z,997.88
2016-02-22T00:33:26.632Z,997.8
2016-02-22T00:34:26.681Z,997.77
2016-02-22T00:35:26.731Z,997.77
2016-02-22T00:36:26.781Z,997.78
2016-02-22T00:37:26.830Z,997.88
2016-02-22T00:38:26.880Z,997.93
2016-02-22T00:39:26.945Z,997.75
2016-02-22T00:40:26.995Z,997.75
2016-02-22T00:41:27.044Z,997.7
2016-02-22T00:42:27.094Z,997.75
2016-02-22T00:43:27.144Z,997.88
2016-02-22T00:44:27.194Z,997.65
2016-02-22T00:45:27.242Z,997.71
2016-02-22T00:46:27.291Z,997.67
2016-02-22T00:47:27.342Z,997.77
2016-02-22T00:48:27.407Z,997.74
2016-02-22T00:49:27.441Z,997.7
2016-02-22T00:50:27.505Z,997.62
2016-02-22T00:51:27.556Z,997.56
2016-02-22T00:52:27.605Z,997.61
2016-02-22T00:53:27.654Z,997.68
2016-02-22T00:54:27.704Z,997.56
2016-02-22T00:55:27.754Z,997.59
2016-02-22T00:56:27.804Z,997.58
2016-02-22T00:57:27.868Z,997.69
2016-02-22T00:58:27.902Z,997.6
2016-02-22T00:59:27.967Z,997.69
2016-02-22T01:00:28.002Z,997.61
2016-02-22T01:01:28.067Z,997.56
2016-02-22T01:02:28.131Z,997.78
2016-02-22T01:03:28.166Z,997.63
2016-02-22T01:04:28.216Z,997.72
2016-02-22T01:05:28.281Z,997.7
2016-02-22T01:06:28.314Z,997.61
2016-02-22T01:07:28.365Z,997.73
2016-02-22T01:08:28.429Z,997.75
2016-02-22T01:09:28.464Z,997.66
2016-02-22T01:10:28.528Z,997.74
2016-02-22T01:11:28.578Z,997.74
2016-02-22T01:12:28.627Z,997.73
2016-02-22T01:13:28.692Z,997.71
2016-02-22T01:14:28.727Z,997.82
2016-02-22T01:15:28.777Z,997.77
2016-02-22T01:16:28.841Z,997.65
2016-02-22T01:17:28.875Z,997.67
2016-02-22T01:18:28.925Z,997.65
2016-02-22T01:19:28.990Z,997.71
2016-02-22T01:20:29.040Z,997.72
2016-02-22T01:21:29.089Z,997.61
2016-02-22T01:22:29.138Z,997.68
2016-02-22T01:23:29.188Z,997.6
2016-02-22T01:24:29.238Z,997.78
2016-02-22T01:25:29.287Z,997.62
2016-02-22T01:26:29.337Z,997.74
2016-02-22T01:27:29.402Z,997.6
2016-02-22T01:28:29.452Z,997.63
2016-02-22T01:29:29.501Z,997.66
2016-02-22T01:30:29.551Z,997.59
2016-02-22T01:31:29.601Z,997.62
2016-02-22T01:32:29.650Z,997.59
2016-02-22T01:33:29.715Z,997.6
2016-02-22T01:34:29.749Z,997.6
2016-02-22T01:35:29.798Z,997.55
2016-02-22T01:36:29.848Z,997.61
2016-02-22T01:37:29.898Z,997.6
2016-02-22T01:38:29.964Z,997.56
2016-02-22T01:39:30.012Z,997.67
2016-02-22T01:40:30.062Z,997.61
2016-02-22T01:41:30.112Z,997.58
2016-02-22T01:42:30.161Z,997.63
2016-02-22T01:43:30.211Z,997.48
2016-02-22T01:44:30.261Z,997.58
2016-02-22T01:45:30.325Z,997.5
2016-02-22T01:46:30.375Z,997.47
2016-02-22T01:47:30.409Z,997.54
2016-02-22T01:48:30.475Z,997.53
2016-02-22T01:49:30.524Z,997.53
2016-02-22T01:50:30.574Z,997.44
2016-02-22T01:51:30.624Z,997.52
2016-02-22T01:52:30.688Z,997.42
2016-02-22T01:53:30.738Z,997.5
2016-02-22T01:54:30.772Z,997.54
2016-02-22T01:55:30.821Z,997.55
2016-02-22T01:56:30.887Z,997.52
2016-02-22T01:57:30.936Z,997.58
2016-02-22T01:58:30.985Z,997.56
2016-02-22T01:59:31.035Z,997.55
2016-02-22T02:00:31.085Z,997.51
2016-02-22T02:01:31.134Z,997.59
2016-02-22T02:02:31.199Z,997.65
2016-02-22T02:03:31.249Z,997.6
2016-02-22T02:04:31.284Z,997.61
2016-02-22T02:05:31.348Z,997.61
2016-02-22T02:06:31.398Z,997.57
2016-02-22T02:07:31.448Z,997.57
2016-02-22T02:08:31.497Z,997.59
2016-02-22T02:09:31.547Z,997.54
2016-02-22T02:10:31.596Z,997.63
2016-02-22T02:11:31.645Z,997.56
2016-02-22T02:12:31.711Z,997.59
2016-02-22T02:13:31.745Z,997.58
2016-02-22T02:14:31.810Z,997.57
2016-02-22T02:15:31.859Z,997.52
2016-02-22T02:16:31.908Z,997.58
2016-02-22T02:17:31.958Z,997.56
2016-02-22T02:18:32.008Z,997.55
2016-02-22T02:19:32.057Z,997.53
2016-02-22T02:20:32.107Z,997.55
2016-02-22T02:21:32.157Z,997.49
2016-02-22T02:22:32.207Z,997.52
2016-02-22T02:23:32.271Z,997.5
2016-02-22T02:24:32.322Z,997.49
2016-02-22T02:25:32.371Z,997.45
2016-02-22T02:26:32.421Z,997.54
2016-02-22T02:27:32.471Z,997.43
2016-02-22T02:28:32.519Z,997.45
2016-02-22T02:29:32.569Z,997.46
2016-02-22T02:30:32.619Z,997.4
2016-02-22T02:31:32.684Z,997.42
2016-02-22T02:32:32.734Z,997.39
2016-02-22T02:33:32.768Z,997.47
2016-02-22T02:34:32.832Z,997.46
2016-02-22T02:35:32.882Z,997.48
2016-02-22T02:36:32.932Z,997.42
2016-02-22T02:37:32.997Z,997.4
2016-02-22T02:38:33.031Z,997.4
2016-02-22T02:39:33.081Z,997.38
2016-02-22T02:40:33.130Z,997.45
2016-02-22T02:41:33.179Z,997.42
2016-02-22T02:42:33.245Z,997.39
2016-02-22T02:43:33.294Z,997.37
2016-02-22T02:44:33.344Z,997.39
2016-02-22T02:45:33.393Z,997.38
2016-02-22T02:46:33.442Z,997.39
2016-02-22T02:47:33.492Z,997.34
2016-02-22T02:48:33.541Z,997.32
2016-02-22T02:49:33.607Z,997.29
2016-02-22T02:50:33.641Z,997.31
2016-02-22T02:51:33.690Z,997.33
2016-02-22T02:52:33.755Z,997.27
2016-02-22T02:53:33.805Z,997.34
2016-02-22T02:54:33.854Z,997.35
2016-02-22T02:55:33.904Z,997.29
2016-02-22T02:56:33.954Z,997.32
2016-02-22T02:57:34.004Z,997.32
2016-02-22T02:58:34.068Z,997.33
2016-02-22T02:59:34.118Z,997.33
2016-02-22T03:00:34.152Z,997.35
2016-02-22T03:01:34.217Z,997.33
2016-02-22T03:02:34.267Z,997.28
2016-02-22T03:03:34.317Z,997.24
2016-02-22T03:04:34.366Z,997.23
2016-02-22T03:05:34.416Z,997.29
2016-02-22T03:06:34.465Z,997.31
2016-02-22T03:07:34.546Z,997.2
2016-02-22T03:08:34.565Z,997.23
2016-02-22T03:09:34.614Z,997.26
2016-02-22T03:10:34.679Z,997.24
2016-02-22T03:11:34.729Z,997.19
2016-02-22T03:12:34.762Z,997.24
2016-02-22T03:13:34.828Z,997.25
2016-02-22T03:14:34.877Z,997.26
2016-02-22T03:15:34.928Z,997.23
2016-02-22T03:16:34.977Z,997.22
2016-02-22T03:17:35.025Z,997.2
2016-02-22T03:18:35.075Z,997.14
2016-02-22T03:19:35.142Z,997.15
2016-02-22T03:20:35.175Z,997.11
2016-02-22T03:21:35.240Z,997.18
2016-02-22T03:22:35.290Z,997.14
2016-02-22T03:23:35.339Z,997.17
2016-02-22T03:24:35.404Z,997.12
2016-02-22T03:25:35.438Z,997.2
2016-02-22T03:26:35.488Z,997.15
2016-02-22T03:27:35.553Z,997.1
2016-02-22T03:28:35.602Z,997.04
2016-02-22T03:29:35.637Z,997.09
2016-02-22T03:30:35.702Z,997.09
2016-02-22T03:31:35.752Z,997.11
2016-02-22T03:32:35.801Z,997.09
2016-02-22T03:33:35.851Z,997.15
2016-02-22T03:34:35.901Z,997.12
2016-02-22T03:35:35.949Z,997.14
2016-02-22T03:36:36.015Z,997.07
2016-02-22T03:37:36.048Z,997.11
2016-02-22T03:38:36.114Z,997.15
2016-02-22T03:39:36.164Z,997.17
2016-02-22T03:40:36.213Z,997.15
2016-02-22T03:41:36.262Z,997.17
2016-02-22T03:42:36.312Z,997.13
2016-02-22T03:43:36.362Z,997.13
2016-02-22T03:44:36.411Z,997.09
2016-02-22T03:45:36.476Z,997.13
2016-02-22T03:46:36.511Z,997.13
2016-02-22T03:47:36.561Z,997.17
2016-02-22T03:48:36.625Z,997.08
2016-02-22T03:49:36.659Z,997.13
2016-02-22T03:50:36.724Z,997.06
2016-02-22T03:51:36.774Z,997.01
2016-02-22T03:52:36.824Z,997.06
2016-02-22T03:53:36.873Z,997.02
2016-02-22T03:54:36.938Z,997.01
2016-02-22T03:55:36.988Z,997
2016-02-22T03:56:37.022Z,997.06
2016-02-22T03:57:37.088Z,997.11
2016-02-22T03:58:37.121Z,997.17
2016-02-22T03:59:37.186Z,997.11
2016-02-22T04:00:37.236Z,997.15
2016-02-22T04:01:37.285Z,997.13
2016-02-22T04:02:37.335Z,997.03
2016-02-22T04:03:37.385Z,996.99
2016-02-22T04:04:37.434Z,997.1
2016-02-22T04:05:37.499Z,997.09
2016-02-22T04:06:37.549Z,997.08
2016-02-22T04:07:37.582Z,997.11
2016-02-22T04:08:37.648Z,997.07
2016-02-22T04:09:37.698Z,997.04
2016-02-22T04:10:37.747Z,996.95
2016-02-22T04:11:37.796Z,996.97
2016-02-22T04:12:37.846Z,996.96
2016-02-22T04:13:37.896Z,997.02
2016-02-22T04:14:37.961Z,996.96
2016-02-22T04:15:37.995Z,996.93
2016-02-22T04:16:38.045Z,996.94
2016-02-22T04:17:38.109Z,996.9
2016-02-22T04:18:38.159Z,996.92
2016-02-22T04:19:38.208Z,996.88
2016-02-22T04:20:38.274Z,996.91
2016-02-22T04:21:38.308Z,996.84
2016-02-22T04:22:38.357Z,996.91
2016-02-22T04:23:38.422Z,996.89
2016-02-22T04:24:38.456Z,996.87
2016-02-22T04:25:38.521Z,996.86
2016-02-22T04:26:38.555Z,996.89
2016-02-22T04:27:38.621Z,996.89
2016-02-22T04:28:38.670Z,996.84
2016-02-22T04:29:38.719Z,996.89
2016-02-22T04:30:38.769Z,996.87
2016-02-22T04:31:38.819Z,996.87
2016-02-22T04:32:38.884Z,996.82
2016-02-22T04:33:38.918Z,996.89
2016-02-22T04:34:38.983Z,996.79
2016-02-22T04:35:39.032Z,996.82
2016-02-22T04:36:39.067Z,996.83
2016-02-22T04:37:39.116Z,996.84
2016-02-22T04:38:39.166Z,996.81
2016-02-22T04:39:39.231Z,996.82
2016-02-22T04:40:39.281Z,996.76
2016-02-22T04:41:39.330Z,996.75
2016-02-22T04:42:39.396Z,996.75
2016-02-22T04:43:39.445Z,996.79
2016-02-22T04:44:39.478Z,996.81
2016-02-22T04:45:39.545Z,996.79
2016-02-22T04:46:39.594Z,996.81
2016-02-22T04:47:39.643Z,996.82
2016-02-22T04:48:39.692Z,996.79
2016-02-22T04:49:39.743Z,996.75
2016-02-22T04:50:39.792Z,996.81
2016-02-22T04:51:39.841Z,996.79
2016-02-22T04:52:39.891Z,996.79
2016-02-22T04:53:39.955Z,996.82
2016-02-22T04:54:40.006Z,996.84
2016-02-22T04:55:40.039Z,996.79
2016-02-22T04:56:40.105Z,996.82
2016-02-22T04:57:40.155Z,996.76
2016-02-22T04:58:40.204Z,996.86
2016-02-22T04:59:40.254Z,996.71
2016-02-22T05:00:40.302Z,996.84
2016-02-22T05:01:40.353Z,996.81
2016-02-22T05:02:40.418Z,996.84
2016-02-22T05:03:40.452Z,996.78
2016-02-22T05:04:40.516Z,996.87
2016-02-22T05:05:40.568Z,996.83
2016-02-22T05:06:40.603Z,996.83
2016-02-22T05:07:40.668Z,996.84
2016-02-22T05:08:40.717Z,996.85
2016-02-22T05:09:40.767Z,996.94
2016-02-22T05:10:40.817Z,996.8
2016-02-22T05:11:40.866Z,996.83
2016-02-22T05:12:40.915Z,996.83
2016-02-22T05:13:40.965Z,996.85
2016-02-22T05:14:41.031Z,996.88
2016-02-22T05:15:41.064Z,996.92
2016-02-22T05:16:41.130Z,996.84
2016-02-22T05:17:41.179Z,996.82
2016-02-22T05:18:41.228Z,996.88
2016-02-22T05:19:41.277Z,996.84
2016-02-22T05:20:41.327Z,996.83
2016-02-22T05:21:41.409Z,996.86
2016-02-22T05:22:41.442Z,996.82
2016-02-22T05:23:41.491Z,996.82
2016-02-22T05:24:41.527Z,996.83
2016-02-22T05:25:41.591Z,996.93
2016-02-22T05:26:41.640Z,996.84
2016-02-22T05:27:41.690Z,996.82
2016-02-22T05:28:41.741Z,996.86
2016-02-22T05:29:41.805Z,996.89
2016-02-22T05:30:41.838Z,996.86
2016-02-22T05:31:41.888Z,996.88
2016-02-22T05:32:41.954Z,996.85
2016-02-22T05:33:42.003Z,996.88
2016-02-22T05:34:42.037Z,996.86
2016-02-22T05:35:42.102Z,996.82
2016-02-22T05:36:42.152Z,996.87
2016-02-22T05:37:42.186Z,996.88
2016-02-22T05:38:42.251Z,996.84
2016-02-22T05:39:42.300Z,996.79
2016-02-22T05:40:42.350Z,996.88
2016-02-22T05:41:42.400Z,996.82
2016-02-22T05:42:42.450Z,996.82
2016-02-22T05:43:42.514Z,996.86
2016-02-22T05:44:42.564Z,996.78
2016-02-22T05:45:42.614Z,996.83
2016-02-22T05:46:42.663Z,996.8
2016-02-22T05:47:42.713Z,996.86
2016-02-22T05:48:42.762Z,996.81
2016-02-22T05:49:42.812Z,996.82
2016-02-22T05:50:42.877Z,996.81
2016-02-22T05:51:42.911Z,996.86
2016-02-22T05:52:42.961Z,996.87
2016-02-22T05:53:43.010Z,996.75
2016-02-22T05:54:43.075Z,996.8
2016-02-22T05:55:43.125Z,996.8
2016-02-22T05:56:43.175Z,996.83
2016-02-22T05:57:43.240Z,996.76
2016-02-22T05:58:43.273Z,996.82
2016-02-22T05:59:43.324Z,996.76
2016-02-22T06:00:43.373Z,996.83
2016-02-22T06:01:43.438Z,996.77
2016-02-22T06:02:43.471Z,996.78
2016-02-22T06:03:43.522Z,996.77
2016-02-22T06:04:43.587Z,996.77
2016-02-22T06:05:43.636Z,996.78
2016-02-22T06:06:43.686Z,996.84
2016-02-22T06:07:43.735Z,996.75
2016-02-22T06:08:43.784Z,996.76
2016-02-22T06:09:43.830Z,996.73
2016-02-22T06:10:43.868Z,996.89
2016-02-22T06:11:43.904Z,996.82
2016-02-22T06:12:43.956Z,996.82
2016-02-22T06:13:43.994Z,996.86
2016-02-22T06:14:44.017Z,996.76
2016-02-22T06:15:44.109Z,996.84
2016-02-22T06:16:44.123Z,996.91
2016-02-22T06:17:44.169Z,996.92
2016-02-22T06:18:44.213Z,996.84
2016-02-22T06:19:44.258Z,996.96
2016-02-22T06:20:44.323Z,996.88
2016-02-22T06:21:44.355Z,996.93
2016-02-22T06:22:44.402Z,996.85
2016-02-22T06:23:44.467Z,996.98
2016-02-22T06:24:44.515Z,996.91
2016-02-22T06:25:44.579Z,997
2016-02-22T06:26:44.612Z,996.96
2016-02-22T06:27:44.661Z,996.93
2016-02-22T06:28:44.710Z,997.02
2016-02-22T06:29:44.774Z,997.03
2016-02-22T06:30:44.823Z,997.09
2016-02-22T06:31:44.858Z,996.92
2016-02-22T06:32:44.922Z,997.01
2016-02-22T06:33:44.971Z,996.93
2016-02-22T06:34:45.021Z,996.99
2016-02-22T06:35:45.070Z,996.98
2016-02-22T06:36:45.120Z,997
2016-02-22T06:37:45.169Z,996.96
2016-02-22T06:38:45.234Z,996.97
2016-02-22T06:39:45.268Z,997.08
2016-02-22T06:40:45.318Z,997.01
2016-02-22T06:41:45.384Z,996.96
2016-02-22T06:42:45.432Z,997
2016-02-22T06:43:45.466Z,997
2016-02-22T06:44:45.532Z,996.98
2016-02-22T06:45:45.581Z,997.06
2016-02-22T06:46:45.631Z,996.97
2016-02-22T06:47:45.681Z,996.94
2016-02-22T06:48:45.731Z,997.06
2016-02-22T06:49:45.795Z,997.07
2016-02-22T06:50:45.828Z,997.06
2016-02-22T06:51:45.878Z,997.05
2016-02-22T06:52:45.945Z,997.06
2016-02-22T06:53:45.994Z,997.11
2016-02-22T06:54:46.043Z,997.16
2016-02-22T06:55:46.092Z,997.13
2016-02-22T06:56:46.158Z,997.18
2016-02-22T06:57:46.191Z,997.17
2016-02-22T06:58:46.241Z,997.21
2016-02-22T06:59:46.291Z,997.22
2016-02-22T07:00:46.356Z,997.24
2016-02-22T07:01:46.405Z,997.31
2016-02-22T07:02:46.440Z,997.34
2016-02-22T07:03:46.505Z,997.37
2016-02-22T07:04:46.554Z,997.32
2016-02-22T07:05:46.604Z,997.37
2016-02-22T07:06:46.654Z,997.36
2016-02-22T07:07:46.704Z,997.41
2016-02-22T07:08:46.752Z,997.37
2016-02-22T07:09:46.818Z,997.44
2016-02-22T07:10:46.867Z,997.42
2016-02-22T07:11:46.901Z,997.38
2016-02-22T07:12:46.967Z,997.47
2016-02-22T07:13:47.015Z,997.55
2016-02-22T07:14:47.065Z,997.5
2016-02-22T07:15:47.115Z,997.52
2016-02-22T07:16:47.165Z,997.58
2016-02-22T07:17:47.214Z,997.58
2016-02-22T07:18:47.264Z,997.56
2016-02-22T07:19:47.329Z,997.62
2016-02-22T07:20:47.378Z,997.64
2016-02-22T07:21:47.412Z,997.64
2016-02-22T07:22:47.493Z,997.69
2016-02-22T07:23:47.528Z,997.71
2016-02-22T07:24:47.577Z,997.78
2016-02-22T07:25:47.626Z,997.75
2016-02-22T07:26:47.676Z,997.8
2016-02-22T07:27:47.741Z,997.86
2016-02-22T07:28:47.791Z,997.89
2016-02-22T07:29:47.824Z,997.89
2016-02-22T07:30:47.891Z,997.91
2016-02-22T07:31:47.939Z,997.85
2016-02-22T07:32:47.988Z,997.88
2016-02-22T07:33:48.039Z,997.9
2016-02-22T07:34:48.088Z,997.96
2016-02-22T07:35:48.138Z,997.93
2016-02-22T07:36:48.187Z,997.89
2016-02-22T07:37:48.237Z,997.83
2016-02-22T07:38:48.302Z,997.94
2016-02-22T07:39:48.351Z,997.96
2016-02-22T07:40:48.385Z,997.89
2016-02-22T07:41:48.466Z,997.91
2016-02-22T07:42:48.501Z,997.93
2016-02-22T07:43:48.550Z,997.9
2016-02-22T07:44:48.599Z,997.91
2016-02-22T07:45:48.649Z,997.91
2016-02-22T07:46:48.698Z,997.93
2016-02-22T07:47:48.748Z,997.92
2016-02-22T07:48:48.814Z,997.93
2016-02-22T07:49:48.862Z,997.92
2016-02-22T07:50:48.912Z,997.99
2016-02-22T07:51:48.947Z,998
2016-02-22T07:52:49.012Z,998
2016-02-22T07:53:49.061Z,998.05
2016-02-22T07:54:49.111Z,998.08
2016-02-22T07:55:49.161Z,998.03
2016-02-22T07:56:49.210Z,998.02
2016-02-22T07:57:49.259Z,998.08
2016-02-22T07:58:49.309Z,998.08
2016-02-22T07:59:49.374Z,998.06
2016-02-22T08:00:49.424Z,998.07
2016-02-22T08:01:49.474Z,998.07
2016-02-22T08:02:49.523Z,998.05
2016-02-22T08:03:49.572Z,998.02
2016-02-22T08:04:49.621Z,997.98
2016-02-22T08:05:49.672Z,998
2016-02-22T08:06:49.721Z,998.05
2016-02-22T08:07:49.785Z,997.98
2016-02-22T08:08:49.836Z,997.98
2016-02-22T08:09:49.886Z,997.98
2016-02-22T08:10:49.951Z,998.02
2016-02-22T08:11:49.984Z,998.03
2016-02-22T08:12:50.035Z,998.05
2016-02-22T08:13:50.084Z,998.04
2016-02-22T08:14:50.133Z,998
2016-02-22T08:15:50.182Z,998.05
2016-02-22T08:16:50.248Z,998.09
2016-02-22T08:17:50.282Z,998.1
2016-02-22T08:18:50.347Z,998.08
2016-02-22T08:19:50.397Z,998.06
2016-02-22T08:20:50.431Z,998.01
2016-02-22T08:21:50.496Z,998.06
2016-02-22T08:22:50.545Z,998.08
2016-02-22T08:23:50.595Z,998.02
2016-02-22T08:24:50.645Z,997.98
2016-02-22T08:25:50.694Z,997.96
2016-02-22T08:26:50.744Z,998.01
2016-02-22T08:27:50.808Z,998.04
2016-02-22T08:28:50.842Z,998.08
2016-02-22T08:29:50.908Z,998.09
2016-02-22T08:30:50.958Z,998.14
2016-02-22T08:31:50.991Z,998.15
2016-02-22T08:32:51.057Z,998.15
2016-02-22T08:33:51.106Z,998.11
2016-02-22T08:34:51.155Z,998.17
2016-02-22T08:35:51.205Z,998.19
2016-02-22T08:36:51.255Z,998.15
2016-02-22T08:37:51.304Z,998.19
2016-02-22T08:38:51.355Z,998.17
2016-02-22T08:39:51.419Z,998.14
2016-02-22T08:40:51.454Z,998.15
2016-02-22T08:41:51.519Z,998.17
2016-02-22T08:42:51.568Z,998.15
2016-02-22T08:43:51.618Z,998.11
2016-02-22T08:44:51.668Z,998.15
2016-02-22T08:45:51.717Z,998.09
2016-02-22T08:46:51.766Z,998.16
2016-02-22T08:47:51.832Z,998.1
2016-02-22T08:48:51.881Z,998.09
2016-02-22T08:49:51.915Z,998.1
2016-02-22T08:50:51.980Z,998.09
2016-02-22T08:51:52.030Z,998.11
2016-02-22T08:52:52.079Z,998.15
2016-02-22T08:53:52.128Z,998.1
2016-02-22T08:54:52.178Z,998.07
2016-02-22T08:55:52.227Z,998.03
2016-02-22T08:56:52.278Z,998.08
2016-02-22T08:57:52.327Z,998.1
2016-02-22T08:58:52.377Z,998.07
2016-02-22T08:59:52.425Z,998.09
2016-02-22T09:00:52.492Z,998.15
2016-02-22T09:01:52.525Z,998.17
2016-02-22T09:02:52.590Z,998.14
2016-02-22T09:03:52.640Z,998.17
2016-02-22T09:04:52.689Z,998.18
2016-02-22T09:05:52.739Z,998.21
2016-02-22T09:06:52.788Z,998.17
2016-02-22T09:07:52.838Z,998.24
2016-02-22T09:08:52.904Z,998.22
2016-02-22T09:09:52.953Z,998.24
2016-02-22T09:10:53.002Z,998.27
2016-02-22T09:11:53.052Z,998.29
2016-02-22T09:12:53.102Z,998.31
2016-02-22T09:13:53.151Z,998.36
2016-02-22T09:14:53.201Z,998.3
2016-02-22T09:15:53.265Z,998.36
2016-02-22T09:16:53.300Z,998.37
2016-02-22T09:17:53.365Z,998.4
2016-02-22T09:18:53.399Z,998.41
2016-02-22T09:19:53.465Z,998.47
2016-02-22T09:20:53.514Z,998.46
2016-02-22T09:21:53.548Z,998.51
2016-02-22T09:22:53.612Z,998.47
2016-02-22T09:23:53.662Z,998.47
2016-02-22T09:24:53.712Z,998.51
2016-02-22T09:25:53.761Z,998.47
2016-02-22T09:26:53.827Z,998.51
2016-02-22T09:27:53.861Z,998.53
2016-02-22T09:28:53.911Z,998.51
2016-02-22T09:29:53.975Z,998.53
2016-02-22T09:30:54.009Z,998.51
2016-02-22T09:31:54.075Z,998.52
2016-02-22T09:32:54.108Z,998.51
2016-02-22T09:33:54.174Z,998.51
2016-02-22T09:34:54.224Z,998.57
2016-02-22T09:35:54.272Z,998.51
2016-02-22T09:36:54.322Z,998.56
2016-02-22T09:37:54.388Z,998.62
2016-02-22T09:38:54.422Z,998.63
2016-02-22T09:39:54.487Z,998.69
2016-02-22T09:40:54.536Z,998.7
2016-02-22T09:41:54.586Z,998.71
2016-02-22T09:42:54.635Z,998.71
2016-02-22T09:43:54.685Z,998.73
2016-02-22T09:44:54.734Z,998.72
2016-02-22T09:45:54.785Z,998.71
2016-02-22T09:46:54.834Z,998.74
2016-02-22T09:47:54.883Z,998.74
2016-02-22T09:48:54.948Z,998.7
2016-02-22T09:49:54.982Z,998.72
2016-02-22T09:50:55.032Z,998.76
2016-02-22T09:51:55.097Z,998.75
2016-02-22T09:52:55.148Z,998.75
2016-02-22T09:53:55.195Z,998.77
2016-02-22T09:54:55.246Z,998.77
2016-02-22T09:55:55.311Z,998.81
2016-02-22T09:56:55.360Z,998.83
2016-02-22T09:57:55.411Z,998.78
2016-02-22T09:58:55.445Z,998.83
2016-02-22T09:59:55.509Z,998.79
2016-02-22T10:00:55.559Z,998.77
2016-02-22T10:01:55.608Z,998.79
2016-02-22T10:02:55.658Z,998.84
2016-02-22T10:03:55.708Z,998.81
2016-02-22T10:04:55.757Z,998.8
2016-02-22T10:05:55.822Z,998.83
2016-02-22T10:06:55.872Z,998.85
2016-02-22T10:07:55.905Z,998.85
2016-02-22T10:08:55.955Z,998.87
2016-02-22T10:09:56.020Z,998.89
2016-02-22T10:10:56.070Z,998.89
2016-02-22T10:11:56.119Z,998.9
2016-02-22T10:12:56.169Z,998.95
2016-02-22T10:13:56.218Z,998.95
2016-02-22T10:14:56.285Z,998.94
2016-02-22T10:15:56.318Z,998.98
2016-02-22T10:16:56.382Z,998.95
2016-02-22T10:17:56.433Z,998.91
2016-02-22T10:18:56.482Z,998.98
2016-02-22T10:19:56.532Z,998.98
2016-02-22T10:20:56.581Z,998.98
2016-02-22T10:21:56.631Z,998.99
2016-02-22T10:22:56.696Z,998.98
2016-02-22T10:23:56.777Z,998.96
2016-02-22T10:24:56.779Z,999.01
2016-02-22T10:25:56.845Z,999.07
2016-02-22T10:26:56.895Z,999.07
2016-02-22T10:27:56.944Z,999.05
2016-02-22T10:28:56.994Z,999.06
2016-02-22T10:29:57.042Z,999.05
2016-02-22T10:30:57.092Z,999.09
2016-02-22T10:31:57.142Z,999.14
2016-02-22T10:32:57.208Z,999.1
2016-02-22T10:33:57.241Z,999.1
2016-02-22T10:34:57.306Z,999.09
2016-02-22T10:35:57.356Z,999.07
2016-02-22T10:36:57.405Z,999.1
2016-02-22T10:37:57.455Z,999.07
2016-02-22T10:38:57.505Z,999.11
2016-02-22T10:39:57.555Z,999.04
2016-02-22T10:40:57.604Z,999.06
2016-02-22T10:41:57.669Z,999.07
2016-02-22T10:42:57.702Z,999.07
2016-02-22T10:43:57.752Z,999.05
2016-02-22T10:44:57.818Z,999.11
2016-02-22T10:45:57.868Z,999.1
2016-02-22T10:46:57.917Z,999.08
2016-02-22T10:47:57.966Z,999.17
2016-02-22T10:48:58.016Z,999.14
2016-02-22T10:49:58.065Z,999.13
2016-02-22T10:50:58.115Z,999.1
2016-02-22T10:51:58.165Z,999.1
2016-02-22T10:52:58.230Z,999.11
2016-02-22T10:53:58.279Z,999.16
2016-02-22T10:54:58.329Z,999.1
2016-02-22T10:55:58.395Z,999.11
2016-02-22T10:56:58.428Z,999.14
2016-02-22T10:57:58.478Z,999.15
2016-02-22T10:58:58.528Z,999.11
2016-02-22T10:59:58.593Z,999.09
2016-02-22T11:00:58.626Z,999.1
2016-02-22T11:01:58.676Z,999.13
2016-02-22T11:02:58.741Z,999.09
2016-02-22T11:03:58.791Z,999.08
2016-02-22T11:04:58.841Z,999.1
2016-02-22T11:05:58.890Z,999.09
2016-02-22T11:06:58.939Z,999.08
2016-02-22T11:07:59.005Z,999.08
2016-02-22T11:08:59.038Z,999.12
2016-02-22T11:09:59.104Z,999.11
2016-02-22T11:10:59.153Z,999.13
2016-02-22T11:11:59.202Z,999.12
2016-02-22T11:12:59.252Z,999.1
2016-02-22T11:13:59.302Z,999.12
2016-02-22T11:14:59.352Z,999.13
2016-02-22T11:15:59.401Z,999.17
2016-02-22T11:16:59.451Z,999.15
2016-02-22T11:17:59.515Z,999.13
2016-02-22T11:18:59.566Z,999.19
2016-02-22T11:19:59.599Z,999.17
2016-02-22T11:20:59.665Z,999.19
2016-02-22T11:21:59.714Z,999.17
2016-02-22T11:22:59.764Z,999.21
2016-02-22T11:23:59.813Z,999.23
2016-02-22T11:24:59.879Z,999.24
2016-02-22T11:25:59.912Z,999.26
2016-02-22T11:26:59.978Z,999.29
2016-02-22T11:28:00.012Z,999.28
2016-02-22T11:29:00.061Z,999.26
2016-02-22T11:30:00.126Z,999.27
2016-02-22T11:31:00.175Z,999.25
2016-02-22T11:32:00.226Z,999.23
2016-02-22T11:33:00.275Z,999.3
2016-02-22T11:34:00.340Z,999.25
2016-02-22T11:35:00.374Z,999.21
2016-02-22T11:36:00.439Z,999.24
2016-02-22T11:37:00.489Z,999.27
2016-02-22T11:38:00.522Z,999.22
2016-02-22T11:39:00.588Z,999.25
2016-02-22T11:40:00.638Z,999.24
2016-02-22T11:41:00.688Z,999.28
2016-02-22T11:42:00.736Z,999.21
2016-02-22T11:43:00.786Z,999.23
2016-02-22T11:44:00.835Z,999.19
2016-02-22T11:45:00.902Z,999.23
2016-02-22T11:46:00.935Z,999.14
2016-02-22T11:47:01.000Z,999.18
2016-02-22T11:48:01.049Z,999.14
2016-02-22T11:49:01.099Z,999.19
2016-02-22T11:50:01.149Z,999.17
2016-02-22T11:51:01.199Z,999.18
2016-02-22T11:52:01.248Z,999.13
2016-02-22T11:53:01.297Z,999.17
2016-02-22T11:54:01.348Z,999.1
2016-02-22T11:55:01.412Z,999.14
2016-02-22T11:56:01.462Z,999.11
2016-02-22T11:57:01.495Z,999.15
2016-02-22T11:58:01.562Z,999.13
2016-02-22T11:59:01.611Z,999.19
2016-02-22T12:00:01.660Z,999.17
2016-02-22T12:01:01.709Z,999.17
2016-02-22T12:02:01.759Z,999.13
2016-02-22T12:03:01.809Z,999.14
2016-02-22T12:04:01.858Z,999.17
2016-02-22T12:05:01.923Z,999.12
2016-02-22T12:06:01.972Z,999.13
2016-02-22T12:07:02.023Z,999.07
2016-02-22T12:08:02.072Z,999.07
2016-02-22T12:09:02.122Z,999.09
2016-02-22T12:10:02.171Z,999.06
2016-02-22T12:11:02.222Z,999.08
2016-02-22T12:12:02.271Z,999.1
2016-02-22T12:13:02.336Z,999.12
2016-02-22T12:14:02.369Z,999.12
2016-02-22T12:15:02.434Z,999.15
2016-02-22T12:16:02.516Z,999.18
2016-02-22T12:17:02.535Z,999.19
2016-02-22T12:18:02.583Z,999.11
2016-02-22T12:19:02.632Z,999.11
2016-02-22T12:20:02.683Z,999.14
2016-02-22T12:21:02.732Z,999.1
2016-02-22T12:22:02.798Z,999.09
2016-02-22T12:23:02.846Z,999.1
2016-02-22T12:24:02.882Z,999.15
2016-02-22T12:25:02.931Z,999.14
2016-02-22T12:26:02.996Z,999.11
2016-02-22T12:27:03.045Z,999.09
2016-02-22T12:28:03.094Z,999.11
2016-02-22T12:29:03.176Z,999.13
2016-02-22T12:30:03.195Z,999.12
2016-02-22T12:31:03.243Z,999.13
2016-02-22T12:32:03.308Z,999.11